createdAt,value
2022-08-24T00:02:18.306Z,18.50
2022-08-24T00:04:51.978Z,18.50
2022-08-24T00:07:28.199Z,18.50
2022-08-24T00:09:56.344Z,18.50
2022-08-24T00:12:31.197Z,18.50
2022-08-24T00:14:58.517Z,18.50
2022-08-24T00:17:32.724Z,18.40
2022-08-24T00:20:07.607Z,18.50
2022-08-24T00:22:41.868Z,18.50
2022-08-24T00:25:17.054Z,18.50
2022-08-24T00:27:51.227Z,18.50
2022-08-24T00:30:20.317Z,18.50
2022-08-24T00:32:55.071Z,18.60
2022-08-24T00:35:22.678Z,18.60
2022-08-24T00:37:57.338Z,18.60
2022-08-24T00:40:27.625Z,18.60
2022-08-24T00:43:02.168Z,18.60
2022-08-24T00:45:30.436Z,18.60
2022-08-24T00:48:10.172Z,18.50
2022-08-24T00:50:43.457Z,18.50
2022-08-24T00:53:20.102Z,18.50
2022-08-24T00:55:50.562Z,18.50
2022-08-24T00:58:27.853Z,18.50
2022-08-24T01:00:58.280Z,18.50
2022-08-24T01:03:34.168Z,18.50
2022-08-24T01:06:01.802Z,18.50
2022-08-24T01:08:35.357Z,18.50
2022-08-24T01:11:11.502Z,18.50
2022-08-24T01:13:39.647Z,18.50
2022-08-24T01:16:15.580Z,18.50
2022-08-24T01:19:03.006Z,18.50
2022-08-24T01:21:47.242Z,18.50
2022-08-24T01:24:16.374Z,18.50
2022-08-24T01:26:54.322Z,18.50
2022-08-24T01:29:28.182Z,18.50
2022-08-24T01:32:05.175Z,18.50
2022-08-24T01:34:32.613Z,18.50
2022-08-24T01:37:07.977Z,18.50
2022-08-24T01:39:37.336Z,18.50
2022-08-24T01:42:11.180Z,18.50
2022-08-24T01:44:39.539Z,18.50
2022-08-24T01:47:15.101Z,18.50
2022-08-24T01:49:45.094Z,18.50
2022-08-24T01:52:20.946Z,18.50
2022-08-24T01:54:49.465Z,18.50
2022-08-24T01:57:24.277Z,18.50
2022-08-24T01:59:52.412Z,18.50
2022-08-24T02:02:29.514Z,18.50
2022-08-24T02:04:56.851Z,18.50
2022-08-24T02:07:31.554Z,18.50
2022-08-24T02:09:59.661Z,18.50
2022-08-24T02:12:34.241Z,18.50
2022-08-24T02:15:09.315Z,18.50
2022-08-24T02:17:36.956Z,18.50
2022-08-24T02:20:11.190Z,18.50
2022-08-24T02:22:44.402Z,18.50
2022-08-24T02:25:18.276Z,18.50
2022-08-24T02:27:52.575Z,18.50
2022-08-24T02:30:26.106Z,18.50
2022-08-24T02:32:54.897Z,18.50
2022-08-24T02:35:29.248Z,18.50
2022-08-24T02:37:56.656Z,18.40
2022-08-24T02:40:31.881Z,18.40
2022-08-24T02:43:06.175Z,18.40
2022-08-24T02:45:40.225Z,18.30
2022-08-24T02:48:07.949Z,18.30
2022-08-24T02:50:45.307Z,18.30
2022-08-24T02:53:14.543Z,18.30
2022-08-24T02:55:52.486Z,18.30
2022-08-24T02:58:20.935Z,18.30
2022-08-24T03:00:57.431Z,18.20
2022-08-24T03:03:32.327Z,18.20
2022-08-24T03:06:06.066Z,18.20
2022-08-24T03:08:34.697Z,18.20
2022-08-24T03:11:03.820Z,18.20
2022-08-24T03:13:38.416Z,18.10
2022-08-24T03:16:13.400Z,18.00
2022-08-24T03:18:40.696Z,18.00
2022-08-24T03:21:22.331Z,18.00
2022-08-24T03:23:57.061Z,18.00
2022-08-24T03:26:31.986Z,18.00
2022-08-24T03:28:59.425Z,18.00
2022-08-24T03:31:28.552Z,17.90
2022-08-24T03:34:02.593Z,17.90
2022-08-24T03:36:31.139Z,17.90
2022-08-24T03:38:58.478Z,18.00
2022-08-24T03:41:35.393Z,18.00
2022-08-24T03:44:05.450Z,18.00
2022-08-24T03:46:43.581Z,18.00
2022-08-24T03:49:11.017Z,18.00
2022-08-24T03:51:45.421Z,18.00
2022-08-24T03:54:15.319Z,18.00
2022-08-24T03:56:49.136Z,18.00
2022-08-24T03:59:23.086Z,18.00
2022-08-24T04:01:57.242Z,18.00
2022-08-24T04:04:31.396Z,18.00
2022-08-24T04:07:06.586Z,18.00
2022-08-24T04:09:34.031Z,18.00
2022-08-24T04:12:08.281Z,18.10
2022-08-24T04:14:42.201Z,18.10
2022-08-24T04:17:18.578Z,18.10
2022-08-24T04:20:07.617Z,18.10
2022-08-24T04:22:43.698Z,18.10
2022-08-24T04:25:24.930Z,18.10
2022-08-24T04:27:59.203Z,18.10
2022-08-24T04:30:27.041Z,18.10
2022-08-24T04:33:01.756Z,18.20
2022-08-24T04:35:29.286Z,18.20
2022-08-24T04:37:56.751Z,18.20
2022-08-24T04:40:31.166Z,18.20
2022-08-24T04:43:08.494Z,18.20
2022-08-24T04:45:46.975Z,18.30
2022-08-24T04:48:15.166Z,18.30
2022-08-24T04:50:50.327Z,18.30
2022-08-24T04:53:19.842Z,18.30
2022-08-24T04:55:56.716Z,18.30
2022-08-24T04:58:24.581Z,18.40
2022-08-24T05:00:58.293Z,18.40
2022-08-24T05:03:27.982Z,18.40
2022-08-24T05:05:55.287Z,18.40
2022-08-24T05:08:29.291Z,18.40
2022-08-24T05:10:56.792Z,18.50
2022-08-24T05:13:30.827Z,18.50
2022-08-24T05:16:04.417Z,18.50
2022-08-24T05:18:40.297Z,18.40
2022-08-24T05:21:28.498Z,18.40
2022-08-24T05:24:18.106Z,18.40
2022-08-24T05:26:53.616Z,18.50
2022-08-24T05:29:29.456Z,18.50
2022-08-24T05:31:56.998Z,18.60
2022-08-24T05:34:31.266Z,18.60
2022-08-24T05:36:58.536Z,18.60
2022-08-24T05:39:32.526Z,18.70
2022-08-24T05:42:02.168Z,18.70
2022-08-24T05:44:39.335Z,18.70
2022-08-24T05:47:06.831Z,18.70
2022-08-24T05:49:41.804Z,18.80
2022-08-24T05:52:09.632Z,18.80
2022-08-24T05:54:43.432Z,18.80
2022-08-24T05:57:10.631Z,18.90
2022-08-24T05:59:45.817Z,18.90
2022-08-24T06:02:13.989Z,18.90
2022-08-24T06:04:48.177Z,19.00
2022-08-24T06:07:17.307Z,19.00
2022-08-24T06:09:51.343Z,19.00
2022-08-24T06:12:19.041Z,19.00
2022-08-24T06:14:54.282Z,19.00
2022-08-24T06:17:30.414Z,19.10
2022-08-24T06:20:06.197Z,19.10
2022-08-24T06:22:46.343Z,19.10
2022-08-24T06:25:39.299Z,19.10
2022-08-24T06:28:13.233Z,19.10
2022-08-24T06:30:47.316Z,19.10
2022-08-24T06:33:14.662Z,19.10
2022-08-24T06:35:49.463Z,19.10
2022-08-24T06:38:17.382Z,19.10
2022-08-24T06:40:53.369Z,19.10
2022-08-24T06:43:21.061Z,19.10
2022-08-24T06:45:48.455Z,19.10
2022-08-24T06:48:22.706Z,19.10
2022-08-24T06:50:50.372Z,19.10
2022-08-24T06:53:24.402Z,19.10
2022-08-24T06:55:52.281Z,19.20
2022-08-24T06:58:26.336Z,19.20
2022-08-24T07:01:02.393Z,19.20
2022-08-24T07:03:36.303Z,19.20
2022-08-24T07:06:05.042Z,19.30
2022-08-24T07:08:39.590Z,19.30
2022-08-24T07:11:07.591Z,19.30
2022-08-24T07:13:41.250Z,19.30
2022-08-24T07:16:19.448Z,19.40
2022-08-24T07:18:49.803Z,19.40
2022-08-24T07:21:32.472Z,19.40
2022-08-24T07:24:00.577Z,19.40
2022-08-24T07:26:36.806Z,19.40
2022-08-24T07:29:05.969Z,19.50
2022-08-24T07:31:44.865Z,19.50
2022-08-24T07:34:12.996Z,19.60
2022-08-24T07:36:48.766Z,19.50
2022-08-24T07:39:16.386Z,19.60
2022-08-24T07:42:11.468Z,19.60
2022-08-24T07:44:39.182Z,19.60
2022-08-24T07:47:37.757Z,19.70
2022-08-24T07:50:01.800Z,19.70
2022-08-24T07:52:35.789Z,19.80
2022-08-24T07:55:04.262Z,19.90
2022-08-24T07:57:33.304Z,19.90
2022-08-24T08:00:09.656Z,20.00
2022-08-24T08:02:44.280Z,20.10
2022-08-24T08:05:11.618Z,20.10
2022-08-24T08:07:47.751Z,20.20
2022-08-24T08:10:17.607Z,20.20
2022-08-24T08:12:52.168Z,20.30
2022-08-24T08:15:26.177Z,20.30
2022-08-24T08:18:01.696Z,20.30
2022-08-24T08:20:51.733Z,20.30
2022-08-24T08:23:45.641Z,20.40
2022-08-24T08:26:17.771Z,20.40
2022-08-24T08:28:52.661Z,20.50
2022-08-24T08:31:20.235Z,20.60
2022-08-24T08:33:54.726Z,20.70
2022-08-24T08:36:23.306Z,20.70
2022-08-24T08:38:57.426Z,20.70
2022-08-24T08:41:41.228Z,20.80
2022-08-24T08:44:35.376Z,20.80
2022-08-24T08:47:35.750Z,20.90
2022-08-24T08:50:15.185Z,20.90
2022-08-24T08:53:09.156Z,20.90
2022-08-24T08:55:46.772Z,20.80
2022-08-24T08:58:15.305Z,20.80
2022-08-24T09:00:49.319Z,20.80
2022-08-24T09:03:19.914Z,20.70
2022-08-24T09:05:47.975Z,20.80
2022-08-24T09:08:22.790Z,20.90
2022-08-24T09:11:02.770Z,21.00
2022-08-24T09:13:49.832Z,21.10
2022-08-24T09:16:30.745Z,21.20
2022-08-24T09:19:13.174Z,21.40
2022-08-24T09:22:05.510Z,21.40
2022-08-24T09:24:58.845Z,21.60
2022-08-24T09:27:26.197Z,21.80
2022-08-24T09:30:00.555Z,21.90
2022-08-24T09:32:34.484Z,22.00
2022-08-24T09:35:08.347Z,22.10
2022-08-24T09:37:52.284Z,22.30
2022-08-24T09:40:41.209Z,22.40
2022-08-24T09:43:21.940Z,22.50
2022-08-24T09:46:30.131Z,22.70
2022-08-24T09:49:11.195Z,22.90
2022-08-24T09:52:06.739Z,23.00
2022-08-24T09:54:59.797Z,23.20
2022-08-24T09:58:00.466Z,23.30
2022-08-24T10:00:35.049Z,23.40
2022-08-24T10:03:06.740Z,23.40
2022-08-24T10:06:00.029Z,23.40
2022-08-24T10:08:27.254Z,23.30
2022-08-24T10:11:13.748Z,23.20
2022-08-24T10:14:00.855Z,23.10
2022-08-24T10:16:29.414Z,23.00
2022-08-24T10:19:07.508Z,23.00
2022-08-24T10:21:58.429Z,22.90
2022-08-24T10:24:42.574Z,22.80
2022-08-24T10:27:19.169Z,22.80
2022-08-24T10:29:54.188Z,22.70
2022-08-24T10:32:46.415Z,22.60
2022-08-24T10:35:16.578Z,22.60
2022-08-24T10:38:19.714Z,22.50
2022-08-24T10:40:52.864Z,22.50
2022-08-24T10:43:42.484Z,22.60
2022-08-24T10:46:16.197Z,22.70
2022-08-24T10:48:59.124Z,22.70
2022-08-24T10:51:52.004Z,22.80
2022-08-24T10:54:27.055Z,23.00
2022-08-24T10:57:15.511Z,23.30
2022-08-24T10:59:51.400Z,23.70
2022-08-24T11:02:36.697Z,24.00
2022-08-24T11:05:12.800Z,24.30
2022-08-24T11:08:04.715Z,24.50
2022-08-24T11:10:40.909Z,24.70
2022-08-24T11:13:34.579Z,24.90
2022-08-24T11:16:11.436Z,24.90
2022-08-24T11:19:05.271Z,25.00
2022-08-24T11:21:43.421Z,25.20
2022-08-24T11:24:31.376Z,25.20
2022-08-24T11:27:15.115Z,25.20
2022-08-24T11:29:54.085Z,25.30
2022-08-24T11:32:35.596Z,25.10
2022-08-24T11:35:06.166Z,25.10
2022-08-24T11:37:35.726Z,25.30
2022-08-24T11:40:12.938Z,25.40
2022-08-24T11:42:40.376Z,25.70
2022-08-24T11:45:08.485Z,25.90
2022-08-24T11:47:48.425Z,26.10
2022-08-24T11:50:41.959Z,26.30
2022-08-24T11:53:13.077Z,26.60
2022-08-24T11:56:05.845Z,26.70
2022-08-24T11:58:44.341Z,26.80
2022-08-24T12:01:35.558Z,26.70
2022-08-24T12:04:24.536Z,26.70
2022-08-24T12:06:55.636Z,26.60
2022-08-24T12:09:33.538Z,26.70
2022-08-24T12:12:11.632Z,26.80
2022-08-24T12:14:43.275Z,26.90
2022-08-24T12:17:35.049Z,27.10
2022-08-24T12:20:39.561Z,27.30
2022-08-24T12:23:33.115Z,27.40
2022-08-24T12:26:02.527Z,27.40
2022-08-24T12:28:40.005Z,27.50
2022-08-24T12:31:24.649Z,27.50
2022-08-24T12:34:01.595Z,27.60
2022-08-24T12:36:43.856Z,27.60
2022-08-24T12:39:13.715Z,27.60
2022-08-24T12:42:05.385Z,27.50
2022-08-24T12:44:49.469Z,27.40
2022-08-24T12:47:35.555Z,27.20
2022-08-24T12:50:07.203Z,27.00
2022-08-24T12:52:41.414Z,26.90
2022-08-24T12:55:15.806Z,26.90
2022-08-24T12:57:54.827Z,26.90
2022-08-24T13:00:49.435Z,26.90
2022-08-24T13:03:40.268Z,26.90
2022-08-24T13:06:46.430Z,26.90
2022-08-24T13:09:16.635Z,26.90
2022-08-24T13:11:54.479Z,27.00
2022-08-24T13:14:24.933Z,27.00
2022-08-24T13:17:05.126Z,27.20
2022-08-24T13:19:59.346Z,27.30
2022-08-24T13:23:00.404Z,27.40
2022-08-24T13:25:43.624Z,27.40
2022-08-24T13:28:35.669Z,27.40
2022-08-24T13:31:13.549Z,27.30
2022-08-24T13:33:43.850Z,27.20
2022-08-24T13:36:36.970Z,27.10
2022-08-24T13:39:16.333Z,27.00
2022-08-24T13:41:50.444Z,27.00
2022-08-24T13:44:24.869Z,27.00
2022-08-24T13:47:04.953Z,27.00
2022-08-24T13:49:39.639Z,27.00
2022-08-24T13:52:38.129Z,27.10
2022-08-24T13:55:30.898Z,27.20
2022-08-24T13:58:17.258Z,27.30
2022-08-24T14:01:11.834Z,27.40
2022-08-24T14:04:00.928Z,27.60
2022-08-24T14:06:30.954Z,27.70
2022-08-24T14:09:22.693Z,27.80
2022-08-24T14:12:07.516Z,27.80
2022-08-24T14:14:38.063Z,27.60
2022-08-24T14:17:42.430Z,27.50
2022-08-24T14:20:32.713Z,27.40
2022-08-24T14:23:04.048Z,27.40
2022-08-24T14:25:44.045Z,27.50
2022-08-24T14:28:23.763Z,27.60
2022-08-24T14:31:18.283Z,27.60
2022-08-24T14:34:12.664Z,27.70
2022-08-24T14:36:53.836Z,27.70
2022-08-24T14:39:47.588Z,27.70
2022-08-24T14:42:21.134Z,27.70
2022-08-24T14:44:58.467Z,27.60
2022-08-24T14:47:41.596Z,27.60
2022-08-24T14:50:17.418Z,27.50
2022-08-24T14:53:16.660Z,27.40
2022-08-24T14:56:00.958Z,27.30
2022-08-24T14:58:38.123Z,27.10
2022-08-24T15:01:24.606Z,26.90
2022-08-24T15:04:32.061Z,26.60
2022-08-24T15:07:32.544Z,26.40
2022-08-24T15:10:01.334Z,26.10
2022-08-24T15:12:49.375Z,25.90
2022-08-24T15:15:19.932Z,25.90
2022-08-24T15:17:56.336Z,25.80
2022-08-24T15:20:52.549Z,25.70
2022-08-24T15:23:46.869Z,25.70
2022-08-24T15:26:14.190Z,25.60
2022-08-24T15:28:56.655Z,25.60
2022-08-24T15:31:35.960Z,25.60
2022-08-24T15:34:11.689Z,25.50
2022-08-24T15:36:38.984Z,25.50
2022-08-24T15:39:13.784Z,25.40
2022-08-24T15:41:43.399Z,25.40
2022-08-24T15:44:21.211Z,25.30
2022-08-24T15:46:53.579Z,25.30
2022-08-24T15:49:30.403Z,25.30
2022-08-24T15:52:09.342Z,25.30
2022-08-24T15:54:45.534Z,25.20
2022-08-24T15:57:25.489Z,25.20
2022-08-24T16:00:01.565Z,25.10
2022-08-24T16:02:31.615Z,25.10
2022-08-24T16:05:21.718Z,25.10
2022-08-24T16:08:19.348Z,25.00
2022-08-24T16:10:51.826Z,24.90
2022-08-24T16:13:26.112Z,24.90
2022-08-24T16:16:05.814Z,24.80
2022-08-24T16:19:08.622Z,24.80
2022-08-24T16:22:10.428Z,24.70
2022-08-24T16:24:52.474Z,24.60
2022-08-24T16:27:20.510Z,24.60
2022-08-24T16:29:57.288Z,24.50
2022-08-24T16:32:39.394Z,24.50
2022-08-24T16:35:30.575Z,24.50
2022-08-24T16:38:04.582Z,24.40
2022-08-24T16:40:35.035Z,24.40
2022-08-24T16:43:09.524Z,24.30
2022-08-24T16:45:44.905Z,24.30
2022-08-24T16:48:19.038Z,24.30
2022-08-24T16:50:50.519Z,24.20
2022-08-24T16:53:24.468Z,24.20
2022-08-24T16:55:54.794Z,24.20
2022-08-24T16:58:31.970Z,24.10
2022-08-24T17:00:59.706Z,24.10
2022-08-24T17:03:35.638Z,24.10
2022-08-24T17:06:03.194Z,24.00
2022-08-24T17:08:37.628Z,24.00
2022-08-24T17:11:11.603Z,24.00
2022-08-24T17:13:54.381Z,23.90
2022-08-24T17:16:30.597Z,23.90
2022-08-24T17:19:00.388Z,23.80
2022-08-24T17:21:35.595Z,23.80
2022-08-24T17:24:10.923Z,23.80
2022-08-24T17:26:48.440Z,23.70
2022-08-24T17:29:18.675Z,23.70
2022-08-24T17:31:54.554Z,23.60
2022-08-24T17:34:23.260Z,23.60
2022-08-24T17:36:58.400Z,23.50
2022-08-24T17:39:25.959Z,23.50
2022-08-24T17:41:53.729Z,23.40
2022-08-24T17:44:31.589Z,23.40
2022-08-24T17:47:07.885Z,23.30
2022-08-24T17:49:35.315Z,23.20
2022-08-24T17:52:09.689Z,23.10
2022-08-24T17:54:36.994Z,23.00
2022-08-24T17:57:05.239Z,23.00
2022-08-24T17:59:41.529Z,22.90
2022-08-24T18:02:18.004Z,22.80
2022-08-24T18:04:45.379Z,22.80
2022-08-24T18:07:42.714Z,22.70
2022-08-24T18:10:14.089Z,22.70
2022-08-24T18:12:47.484Z,22.60
2022-08-24T18:15:15.050Z,22.60
2022-08-24T18:17:54.504Z,22.50
2022-08-24T18:20:26.744Z,22.50
2022-08-24T18:23:11.956Z,22.40
2022-08-24T18:25:46.657Z,22.40
2022-08-24T18:28:23.904Z,22.30
2022-08-24T18:30:52.709Z,22.30
2022-08-24T18:33:42.545Z,22.30
2022-08-24T18:36:10.143Z,22.20
2022-08-24T18:38:38.072Z,22.20
2022-08-24T18:41:11.612Z,22.20
2022-08-24T18:43:45.452Z,22.10
2022-08-24T18:46:16.616Z,22.00
2022-08-24T18:48:50.630Z,22.00
2022-08-24T18:51:24.681Z,21.90
2022-08-24T18:54:09.616Z,21.90
2022-08-24T18:56:37.891Z,21.90
2022-08-24T18:59:12.619Z,21.90
2022-08-24T19:02:05.780Z,21.80
2022-08-24T19:04:39.690Z,21.80
2022-08-24T19:07:07.881Z,21.70
2022-08-24T19:09:41.633Z,21.70
2022-08-24T19:12:15.713Z,21.70
2022-08-24T19:14:46.355Z,21.60
2022-08-24T19:17:21.661Z,21.60
2022-08-24T19:19:49.303Z,21.60
2022-08-24T19:22:29.686Z,21.70
2022-08-24T19:25:02.678Z,21.60
2022-08-24T19:27:36.665Z,21.60
2022-08-24T19:30:05.496Z,21.60
2022-08-24T19:32:45.526Z,21.60
2022-08-24T19:35:21.721Z,21.50
2022-08-24T19:37:50.638Z,21.50
2022-08-24T19:40:24.496Z,21.50
2022-08-24T19:43:00.733Z,21.50
2022-08-24T19:45:46.977Z,21.40
2022-08-24T19:48:21.981Z,21.40
2022-08-24T19:50:50.317Z,21.40
2022-08-24T19:53:24.697Z,21.40
2022-08-24T19:55:53.941Z,21.40
2022-08-24T19:58:36.717Z,21.40
2022-08-24T20:01:17.906Z,21.40
2022-08-24T20:03:51.891Z,21.40
2022-08-24T20:06:22.516Z,21.40
2022-08-24T20:08:56.921Z,21.30
2022-08-24T20:11:27.401Z,21.30
2022-08-24T20:14:02.458Z,21.30
2022-08-24T20:16:39.523Z,21.20
2022-08-24T20:19:13.372Z,21.20
2022-08-24T20:21:48.406Z,21.10
2022-08-24T20:24:28.980Z,21.10
2022-08-24T20:26:56.427Z,21.10
2022-08-24T20:29:31.383Z,21.10
2022-08-24T20:32:03.046Z,21.10
2022-08-24T20:34:37.416Z,21.10
2022-08-24T20:37:05.676Z,21.00
2022-08-24T20:39:35.036Z,21.00
2022-08-24T20:42:15.625Z,21.00
2022-08-24T20:44:48.091Z,21.00
2022-08-24T20:47:22.694Z,21.00
2022-08-24T20:49:51.080Z,21.00
2022-08-24T20:52:24.777Z,20.90
2022-08-24T20:54:59.956Z,20.90
2022-08-24T20:57:27.412Z,20.90
2022-08-24T21:00:04.958Z,20.80
2022-08-24T21:02:32.392Z,20.80
2022-08-24T21:05:06.751Z,20.80
2022-08-24T21:07:34.231Z,20.80
2022-08-24T21:10:08.677Z,20.70
2022-08-24T21:12:38.562Z,20.70
2022-08-24T21:15:13.827Z,20.70
2022-08-24T21:17:49.036Z,20.70
2022-08-24T21:20:17.242Z,20.70
2022-08-24T21:22:57.693Z,20.70
2022-08-24T21:25:39.617Z,20.60
2022-08-24T21:28:07.104Z,20.60
2022-08-24T21:30:40.454Z,20.60
2022-08-24T21:33:28.551Z,20.60
2022-08-24T21:36:04.212Z,20.60
2022-08-24T21:38:31.837Z,20.60
2022-08-24T21:41:05.914Z,20.60
2022-08-24T21:43:33.654Z,20.60
2022-08-24T21:46:07.843Z,20.60
2022-08-24T21:48:35.211Z,20.60
2022-08-24T21:51:10.671Z,20.60
2022-08-24T21:53:38.371Z,20.50
2022-08-24T21:56:13.774Z,20.50
2022-08-24T21:58:41.572Z,20.40
2022-08-24T22:01:16.164Z,20.40
2022-08-24T22:03:50.651Z,20.40
2022-08-24T22:06:18.031Z,20.40
2022-08-24T22:08:51.751Z,20.40
2022-08-24T22:11:26.933Z,20.30
2022-08-24T22:13:55.091Z,20.30
2022-08-24T22:16:23.062Z,20.30
2022-08-24T22:18:58.652Z,20.30
2022-08-24T22:21:45.903Z,20.30
2022-08-24T22:24:23.231Z,20.30
2022-08-24T22:26:57.692Z,20.30
2022-08-24T22:29:25.431Z,20.30
2022-08-24T22:31:59.493Z,20.30
2022-08-24T22:34:27.096Z,20.20
2022-08-24T22:37:03.873Z,20.20
2022-08-24T22:39:31.291Z,20.20
2022-08-24T22:42:05.627Z,20.20
2022-08-24T22:44:41.493Z,20.10
2022-08-24T22:47:11.872Z,20.10
2022-08-24T22:49:53.087Z,20.10
2022-08-24T22:52:26.463Z,20.10
2022-08-24T22:54:55.626Z,20.10
2022-08-24T22:57:30.376Z,20.10
2022-08-24T23:00:04.826Z,20.10
2022-08-24T23:02:32.518Z,20.10
2022-08-24T23:05:06.737Z,20.10
2022-08-24T23:07:35.736Z,20.00
2022-08-24T23:10:13.101Z,20.00
2022-08-24T23:12:40.360Z,20.00
2022-08-24T23:15:14.563Z,20.00
2022-08-24T23:17:43.551Z,20.00
2022-08-24T23:20:17.674Z,20.00
2022-08-24T23:22:51.756Z,20.00
2022-08-24T23:25:33.932Z,20.00
2022-08-24T23:28:01.693Z,19.90
2022-08-24T23:30:35.632Z,19.90
2022-08-24T23:33:04.068Z,19.90
2022-08-24T23:35:40.051Z,19.90
2022-08-24T23:38:09.061Z,19.90
2022-08-24T23:40:47.441Z,19.90
2022-08-24T23:43:15.709Z,19.90
2022-08-24T23:45:51.923Z,19.90
2022-08-24T23:48:20.791Z,19.90
2022-08-24T23:50:54.757Z,19.90
2022-08-24T23:53:31.671Z,19.90
2022-08-24T23:56:06.723Z,20.00
2022-08-24T23:58:40.691Z,20.00
